Latest Weather Observations for Roxby Downs

IDS60801

Issued at 9:01 am CST Tuesday 1 September 2015 (issued every 30 minutes, with the page automatically refreshed every 10 minutes)

About weather observations | Map of weather stations | Latest weather observations for SA | Other Formats
Station Details ID: 016096 Name: OLYMPIC DAM AERODROME Lat: -30.48 Lon: 136.88 Height: 98.5 m
Data from the previous 72 hours. | See also: Recent months at Roxby Downs
Date/Time
CST
Temp
°C
App
Temp
°C
Dew
Point
Rel
Hum
%
Delta-T
°C
Wind Press
QNH
hPa
Press
MSL
hPa
Rain
since 9 am
mm
Dir
 
Spd
km/h
Gust
km/h
Spd
kts
Gust
kts
01/09:00am 12.2 9.0 6.9 70 2.5 NNE 13 17 7 9 1014.4 1014.4 0.6
01/08:30am 12.1 8.4 6.2 67 2.8 NE 15 22 8 12 1013.9 1013.9 0.2
01/08:00am 12.9 7.9 4.6 57 3.8 NNE 20 26 11 14 1013.9 1013.9 0.2
01/07:30am 13.7 7.6 2.9 48 4.8 N 24 30 13 16 1013.9 1013.9 0.0
01/07:00am 14.7 9.0 0.5 38 6.1 NNE 20 30 11 16 1013.2 1013.2 0.0
01/06:30am 15.0 9.0 -1.5 32 6.8 N 20 28 11 15 1013.5 1013.5 0.0
01/06:00am 15.0 8.6 -2.0 31 6.9 N 22 30 12 16 1013.6 1013.6 0.0
01/05:30am 14.9 8.8 -2.1 31 6.9 NNE 20 30 11 16 1013.4 1013.4 0.0
01/05:00am 14.7 9.3 -1.4 33 6.6 NNE 17 22 9 12 1013.4 1013.4 0.0
01/04:30am 14.7 9.2 -1.8 32 6.7 NNE 17 22 9 12 1013.6 1013.6 0.0
01/04:00am 15.1 9.6 -1.9 31 6.9 NNE 17 22 9 12 1013.8 1013.8 0.0
01/03:30am 15.2 9.4 -1.4 32 6.8 NNE 19 24 10 13 1014.0 1014.0 0.0
01/03:00am 15.2 9.5 -0.9 33 6.7 NNE 19 24 10 13 1014.4 1014.4 0.0
01/02:30am 14.8 9.6 -0.1 36 6.3 NNE 17 22 9 12 1014.8 1014.8 0.0
01/02:00am 14.0 9.6 0.6 40 5.7 NNE 13 17 7 9 1015.2 1015.2 0.0
01/01:30am 13.7 9.4 1.0 42 5.4 NNE 13 17 7 9 1015.2 1015.2 0.0
01/01:00am 14.1 9.8 1.1 41 5.6 NNE 13 17 7 9 1015.5 1015.6 0.0
01/12:30am 14.4 10.1 1.0 40 5.8 NNE 13 15 7 8 1016.0 1016.0 0.0
01/12:00am 14.8 10.5 1.0 39 6.0 NNE 13 17 7 9 1015.8 1015.9 0.0
 
Date/Time
CST
Temp
°C
App
Temp
°C
Dew
Point
Rel
Hum
%
Delta-T
°C
Wind Press
QNH
hPa
Press
MSL
hPa
Rain
since 9 am
mm
Dir
 
Spd
km/h
Gust
km/h
Spd
kts
Gust
kts
31/11:30pm 14.9 11.0 1.1 39 6.0 NE 11 13 6 7 1016.0 1016.0 0.0
31/11:00pm 15.7 11.7 0.7 36 6.5 N 11 13 6 7 1016.5 1016.5 0.0
31/10:30pm 16.5 12.1 0.6 34 6.9 NNE 13 17 7 9 1016.6 1016.6 0.0
31/10:00pm 16.8 12.5 1.3 35 6.9 NNE 13 19 7 10 1016.8 1016.8 0.0
31/09:30pm 16.8 12.5 1.3 35 6.9 NNE 13 17 7 9 1017.0 1017.0 0.0
31/09:00pm 16.5 12.3 1.4 36 6.7 N 13 17 7 9 1017.1 1017.1 0.0
31/08:30pm 16.1 12.4 2.2 39 6.2 NE 11 13 6 7 1017.1 1017.1 0.0
31/08:00pm 17.0 13.2 1.8 36 6.8 NNE 11 13 6 7 1017.2 1017.2 0.0
31/07:30pm 17.8 14.4 1.7 34 7.2 NNE 9 11 5 6 1017.2 1017.2 0.0
31/07:00pm 19.2 15.4 1.7 31 8.0 NNE 11 15 6 8 1017.1 1017.1 0.0
31/06:30pm 20.3 16.5 1.7 29 8.5 N 11 13 6 7 1017.0 1017.0 0.0
31/06:00pm 20.8 16.2 1.6 28 8.8 N 15 20 8 11 1016.9 1016.9 0.0
31/05:30pm 21.3 17.5 1.6 27 9.1 N 11 19 6 10 1016.8 1016.8 0.0
31/05:00pm 21.6 17.8 1.8 27 9.2 NNE 11 17 6 9 1016.6 1016.6 0.0
31/04:30pm 21.7 17.8 1.4 26 9.4 NNE 11 17 6 9 1016.7 1016.7 0.0
31/04:00pm 21.5 17.2 1.2 26 9.3 NNE 13 17 7 9 1017.1 1017.1 0.0
31/03:30pm 21.7 17.5 1.9 27 9.2 NNW 13 22 7 12 1017.3 1017.3 0.0
31/03:00pm 22.0 17.7 1.1 25 9.6 N 13 22 7 12 1017.4 1017.4 0.0
31/02:30pm 21.7 17.4 0.8 25 9.5 NNW 13 22 7 12 1017.7 1017.7 0.0
31/02:00pm 21.5 16.5 1.2 26 9.3 N 17 20 9 11 1018.2 1018.2 0.0
31/01:30pm 21.5 16.8 0.7 25 9.5 N 15 22 8 12 1018.4 1018.4 0.0
31/01:00pm 21.6 16.1 0.8 25 9.5 N 19 28 10 15 1019.0 1019.0 0.0
31/12:30pm 21.1 15.9 0.3 25 9.3 N 17 24 9 13 1019.6 1019.6 0.0
31/12:00pm 20.5 15.0 0.4 26 9.0 N 19 26 10 14 1020.2 1020.2 0.0
31/11:30am 19.8 14.3 0.3 27 8.7 NNE 19 28 10 15 1020.5 1020.5 0.0
31/11:00am 19.2 12.7 0.3 28 8.4 NNE 24 32 13 17 1020.9 1020.9 0.0
31/10:30am 18.5 12.4 0.6 30 7.9 NNE 22 30 12 16 1021.1 1021.1 0.0
31/10:00am 17.2 11.5 0.4 32 7.3 NNE 20 32 11 17 1021.3 1021.3 0.0
31/09:30am 15.9 9.8 0.5 35 6.6 NNE 22 32 12 17 1021.4 1021.4 0.0
31/09:00am 14.6 8.5 0.5 38 6.0 NNE 22 30 12 16 1021.5 1021.5 0.0
31/08:30am 12.8 7.3 0.5 43 5.1 NNE 19 26 10 14 1021.5 1021.5 0.0
31/08:00am 11.1 7.2 1.4 51 4.1 NNE 11 15 6 8 1021.2 1021.2 0.0
31/07:30am 9.5 6.1 1.9 59 3.2 NE 9 11 5 6 1021.0 1021.0 0.0
31/07:00am 7.2 3.8 1.7 68 2.2 NNE 9 9 5 5 1020.6 1020.6 0.0
31/06:30am 7.8 4.0 1.9 66 2.4 NE 11 13 6 7 1020.3 1020.3 0.0
31/06:00am 8.2 4.4 1.8 64 2.6 NNE 11 13 6 7 1020.2 1020.2 0.0
31/05:30am 8.5 4.8 2.3 65 2.6 NNE 11 13 6 7 1020.0 1020.0 0.0
31/05:00am 7.7 4.4 2.6 70 2.1 NE 9 11 5 6 1019.8 1019.8 0.0
31/04:30am 8.4 5.1 2.4 66 2.5 NE 9 13 5 7 1019.8 1019.8 0.0
31/04:00am 9.5 6.2 2.6 62 2.9 NE 9 13 5 7 1019.7 1019.7 0.0
31/03:30am 9.7 6.5 2.8 62 3.0 ENE 9 13 5 7 1019.7 1019.7 0.0
31/03:00am 9.6 6.4 3.1 64 2.8 ENE 9 13 5 7 1019.9 1019.9 0.0
31/02:30am 9.7 6.1 3.2 64 2.8 NE 11 13 6 7 1020.3 1020.3 0.0
31/02:00am 9.3 6.1 3.3 66 2.6 ENE 9 13 5 7 1020.6 1020.6 0.0
31/01:30am 9.1 5.9 3.1 66 2.6 NE 9 11 5 6 1020.8 1020.8 0.0
31/01:00am 9.8 6.6 3.1 63 2.9 NE 9 11 5 6 1021.2 1021.2 0.0
31/12:30am 10.4 6.9 3.4 62 3.1 NE 11 13 6 7 1021.2 1021.2 0.0
31/12:00am 10.5 7.0 3.5 62 3.1 NE 11 13 6 7 1021.5 1021.5 0.0
 
Date/Time
CST
Temp
°C
App
Temp
°C
Dew
Point
Rel
Hum
%
Delta-T
°C
Wind Press
QNH
hPa
Press
MSL
hPa
Rain
since 9 am
mm
Dir
 
Spd
km/h
Gust
km/h
Spd
kts
Gust
kts
30/11:30pm 10.8 7.3 3.4 60 3.2 NE 11 13 6 7 1021.6 1021.6 0.0
30/11:00pm 10.9 7.3 3.2 59 3.4 ENE 11 11 6 6 1021.7 1021.7 0.0
30/10:30pm 11.3 7.7 3.1 57 3.6 NE 11 13 6 7 1022.0 1022.0 0.0
30/10:00pm 10.6 7.5 3.4 61 3.2 NNE 9 11 5 6 1022.1 1022.1 0.0
30/09:30pm 9.1 6.3 5.3 77 1.7 NE 9 9 5 5 1022.2 1022.2 0.0
30/09:00pm 9.6 7.1 5.0 73 2.1 NE 7 7 4 4 1022.2 1022.2 0.0
30/08:30pm 10.3 7.5 5.3 71 2.3 ENE 9 9 5 5 1021.8 1021.8 0.0
30/08:00pm 11.3 8.6 3.8 60 3.3 ENE 7 9 4 5 1021.6 1021.6 0.0
30/07:30pm 12.5 10.1 5.2 61 3.4 ENE 7 9 4 5 1021.3 1021.3 0.0
30/07:00pm 15.0 12.4 4.1 48 5.1 ENE 7 9 4 5 1021.2 1021.2 0.0
30/06:30pm 16.4 13.4 2.1 38 6.4 NE 7 9 4 5 1020.8 1020.8 0.0
30/06:00pm 17.8 14.8 1.7 34 7.2 ENE 7 11 4 6 1020.7 1020.7 0.0
30/05:30pm 18.6 15.5 1.6 32 7.7 NE 7 11 4 6 1020.7 1020.7 0.0
30/05:00pm 19.1 16.1 0.7 29 8.2 N 6 17 3 9 1020.7 1020.7 0.0
30/04:30pm 19.5 16.0 1.0 29 8.3 N 9 13 5 7 1020.8 1020.8 0.0
30/04:00pm 19.3 15.3 0.8 29 8.3 NW 11 15 6 8 1020.9 1020.9 0.0
30/03:30pm 19.9 16.1 1.8 30 8.3 N 11 19 6 10 1021.0 1021.0 0.0
30/03:00pm 19.6 15.3 1.1 29 8.3 NNW 13 22 7 12 1021.2 1021.2 0.0
30/02:30pm 19.0 14.7 1.1 30 8.0 N 13 22 7 12 1021.4 1021.4 0.0
30/02:00pm 19.0 15.0 0.6 29 8.2 NNE 11 20 6 11 1021.9 1021.9 0.0
30/01:30pm 19.3 15.5 1.8 31 8.0 NE 11 19 6 10 1022.3 1022.3 0.0
30/01:00pm 18.3 14.0 1.3 32 7.6 NNE 13 22 7 12 1022.9 1022.9 0.0
30/12:30pm 17.6 13.4 1.6 34 7.2 N 13 22 7 12 1023.7 1023.7 0.0
30/12:00pm 17.2 12.6 1.6 35 6.9 NNE 15 24 8 13 1024.1 1024.2 0.0
30/11:30am 17.1 11.9 2.7 38 6.6 NNE 19 26 10 14 1024.9 1025.0 0.0
30/11:00am 16.4 11.1 1.7 37 6.6 NNE 19 28 10 15 1025.2 1025.3 0.0
30/10:30am 15.8 10.5 1.9 39 6.2 NE 19 28 10 15 1025.4 1025.5 0.0
30/10:00am 15.5 10.2 1.6 39 6.1 NE 19 24 10 13 1025.6 1025.7 0.0
30/09:30am 14.4 9.9 2.3 44 5.3 NE 15 22 8 12 1025.7 1025.8 0.0
30/09:00am 14.0 10.8 2.9 47 4.9 ENE 9 15 5 8 1025.4 1025.5 0.0
30/08:30am 12.4 9.2 3.1 53 4.1 E 9 13 5 7 1025.1 1025.2 0.0
30/08:00am 8.5 7.1 3.4 70 2.2 CALM 0 0 0 0 1025.0 1025.1 0.0
30/07:30am 5.9 3.7 3.1 82 1.2 ESE 4 9 2 5 1024.6 1024.7 0.0
30/07:00am 4.0 1.1 2.7 91 0.5 SE 7 9 4 5 1024.1 1024.2 0.0
30/06:30am 3.7 0.7 2.2 90 0.6 SSE 7 9 4 5 1024.0 1024.1 0.0
30/06:00am 3.9 1.0 2.4 90 0.6 SSE 7 9 4 5 1023.6 1023.6 0.0
30/05:30am 4.0 1.1 2.7 91 0.5 SSE 7 9 4 5 1023.5 1023.5 0.0
30/05:00am 3.9 1.2 2.7 92 0.5 S 6 9 3 5 1023.4 1023.4 0.0
30/04:30am 4.3 1.7 3.1 92 0.5 S 6 7 3 4 1023.3 1023.3 0.0
30/04:00am 3.7 1.4 2.5 92 0.5 S 4 6 2 3 1023.6 1023.6 0.0
30/03:30am 4.1 1.4 2.6 90 0.6 SSE 6 6 3 3 1023.6 1023.6 0.0
30/03:00am 4.8 2.1 3.5 91 0.5 SSE 7 7 4 4 1023.7 1023.7 0.0
30/02:30am 4.4 2.9 2.9 90 0.6 CALM 0 0 0 0 1024.0 1024.1 0.0
30/02:00am 4.7 3.3 3.4 91 0.5 CALM 0 0 0 0 1024.4 1024.5 0.0
30/01:30am 4.8 3.4 3.3 90 0.6 CALM 0 0 0 0 1024.7 1024.8 0.0
30/01:00am 5.1 3.7 3.6 90 0.6 CALM 0 0 0 0 1025.0 1025.1 0.0
30/12:30am 5.4 4.0 3.6 88 0.8 CALM 0 0 0 0 1025.2 1025.3 0.0
30/12:00am 5.7 4.3 3.5 86 0.9 CALM 0 0 0 0 1025.4 1025.5 0.0
 
Date/Time
CST
Temp
°C
App
Temp
°C
Dew
Point
Rel
Hum
%
Delta-T
°C
Wind Press
QNH
hPa
Press
MSL
hPa
Rain
since 9 am
mm
Dir
 
Spd
km/h
Gust
km/h
Spd
kts
Gust
kts
29/11:30pm 6.4 5.1 4.1 85 1.0 CALM 0 0 0 0 1025.6 1025.7 0.0
29/11:00pm 6.6 5.3 3.9 83 1.2 CALM 0 0 0 0 1025.6 1025.7 0.0
29/10:30pm 7.3 6.1 4.4 82 1.3 CALM 0 0 0 0 1025.7 1025.8 0.0
29/10:00pm 8.0 6.7 4.0 76 1.7 CALM 0 0 0 0 1025.7 1025.8 0.0
29/09:30pm 9.1 6.5 4.1 71 2.2 ESE 7 9 4 5 1025.8 1025.9 0.0
29/09:00pm 10.8 7.4 2.1 55 3.7 ESE 9 11 5 6 1025.8 1025.9 0.0
29/08:30pm 10.9 7.7 3.0 58 3.4 ESE 9 11 5 6 1025.6 1025.7 0.0
29/08:00pm 12.4 9.0 1.7 48 4.6 SE 9 13 5 7 1025.3 1025.4 0.0
29/07:30pm 13.6 9.4 1.6 44 5.2 ESE 13 15 7 8 1024.9 1025.0 0.0
29/07:00pm 14.2 9.6 1.5 42 5.5 SE 15 20 8 11 1024.6 1024.7 0.0
29/06:30pm 14.6 10.4 1.5 41 5.7 SE 13 15 7 8 1024.3 1024.4 0.0
29/06:00pm 15.6 10.5 1.0 37 6.3 SE 17 24 9 13 1024.2 1024.3 0.0
29/05:30pm 16.6 11.9 1.1 35 6.8 ESE 15 22 8 12 1023.9 1024.0 0.0
29/05:00pm 17.1 12.0 0.7 33 7.2 SE 17 26 9 14 1023.8 1023.8 0.0
29/04:30pm 17.5 13.9 0.6 32 7.4 ESE 9 19 5 10 1023.7 1023.7 0.0
29/04:00pm 16.8 13.3 1.3 35 6.9 SE 9 13 5 7 1023.8 1023.8 0.0
29/03:30pm 17.0 12.6 0.6 33 7.1 SSE 13 20 7 11 1023.8 1023.8 0.0
29/03:00pm 16.9 12.2 1.0 34 7.0 SE 15 24 8 13 1024.0 1024.1 0.0
29/02:30pm 17.3 13.4 1.3 34 7.1 SE 11 17 6 9 1024.1 1024.2 0.0
29/02:00pm 16.9 13.7 0.5 33 7.2 SSE 7 19 4 10 1024.5 1024.6 0.0
29/01:30pm 17.0 13.8 0.6 33 7.1 ESE 7 13 4 7 1024.6 1024.7 0.0
29/01:00pm 16.6 12.6 0.7 34 6.9 SE 11 19 6 10 1025.2 1025.3 0.0
29/12:30pm 16.4 12.1 0.9 35 6.8 SSE 13 20 7 11 1025.6 1025.7 0.0
29/12:00pm 16.5 12.3 1.8 37 6.5 ESE 13 20 7 11 1025.9 1026.0 0.0
29/11:30am 16.8 12.9 3.5 41 6.1 ENE 13 20 7 11 1026.5 1026.5 0.0
29/11:00am 16.3 12.1 3.7 43 5.8 E 15 24 8 13 1026.9 1026.9 0.0
29/10:30am 15.6 12.0 4.9 49 5.0 E 13 20 7 11 1027.2 1027.2 0.0
29/10:00am 15.1 10.7 4.8 50 4.8 ESE 17 24 9 13 1027.3 1027.3 0.0
29/09:30am 14.7 10.5 5.5 54 4.4 E 17 20 9 11 1027.3 1027.3 0.0

Other Formats:

Comma delimited format used in spreadsheet applications
http://www.bom.gov.au/fwo/IDS60801/IDS60801.95658.axf

JavaScript Object Notation format (JSON) in row-major order
http://www.bom.gov.au/fwo/IDS60801/IDS60801.95658.json